sensor_id;sensor_type;location;lat;lon;timestamp;temperature;humidity
11772;DHT22;12556;55.748;13.194;2022-11-04T00:01:29;9.70;99.90
11772;DHT22;12556;55.748;13.194;2022-11-04T00:03:57;9.70;99.90
11772;DHT22;12556;55.748;13.194;2022-11-04T00:06:24;9.60;99.90
11772;DHT22;12556;55.748;13.194;2022-11-04T00:08:52;9.70;99.90
11772;DHT22;12556;55.748;13.194;2022-11-04T00:11:19;9.70;99.90
11772;DHT22;12556;55.748;13.194;2022-11-04T00:14:06;9.60;99.90
11772;DHT22;12556;55.748;13.194;2022-11-04T00:16:34;9.50;99.90
11772;DHT22;12556;55.748;13.194;2022-11-04T00:19:19;9.50;99.90
11772;DHT22;12556;55.748;13.194;2022-11-04T00:21:46;9.40;99.90
11772;DHT22;12556;55.748;13.194;2022-11-04T00:24:31;9.40;99.90
11772;DHT22;12556;55.748;13.194;2022-11-04T00:27:16;9.30;99.90
11772;DHT22;12556;55.748;13.194;2022-11-04T00:30:16;9.30;99.90
11772;DHT22;12556;55.748;13.194;2022-11-04T00:32:43;9.30;99.90
11772;DHT22;12556;55.748;13.194;2022-11-04T00:35:28;9.30;99.90
11772;DHT22;12556;55.748;13.194;2022-11-04T00:37:55;9.20;99.90
11772;DHT22;12556;55.748;13.194;2022-11-04T00:40:22;9.20;99.90
11772;DHT22;12556;55.748;13.194;2022-11-04T00:42:49;9.20;99.90
11772;DHT22;12556;55.748;13.194;2022-11-04T00:45:16;9.10;99.90
11772;DHT22;12556;55.748;13.194;2022-11-04T00:47:43;9.10;99.90
11772;DHT22;12556;55.748;13.194;2022-11-04T00:50:10;9.10;99.90
11772;DHT22;12556;55.748;13.194;2022-11-04T00:52:38;9.10;99.90
11772;DHT22;12556;55.748;13.194;2022-11-04T00:55:06;9.10;99.90
11772;DHT22;12556;55.748;13.194;2022-11-04T00:57:33;9.10;99.90
11772;DHT22;12556;55.748;13.194;2022-11-04T01:00:00;9.00;99.90
11772;DHT22;12556;55.748;13.194;2022-11-04T01:02:27;9.00;99.90
11772;DHT22;12556;55.748;13.194;2022-11-04T01:04:54;9.00;99.90
11772;DHT22;12556;55.748;13.194;2022-11-04T01:07:21;9.00;99.90
11772;DHT22;12556;55.748;13.194;2022-11-04T01:09:49;9.00;99.90
11772;DHT22;12556;55.748;13.194;2022-11-04T01:12:16;9.00;99.90
11772;DHT22;12556;55.748;13.194;2022-11-04T01:14:43;9.00;99.90
11772;DHT22;12556;55.748;13.194;2022-11-04T01:17:14;9.00;99.90
11772;DHT22;12556;55.748;13.194;2022-11-04T01:19:41;9.00;99.90
11772;DHT22;12556;55.748;13.194;2022-11-04T01:22:08;9.10;99.90
11772;DHT22;12556;55.748;13.194;2022-11-04T01:24:35;9.00;99.90
11772;DHT22;12556;55.748;13.194;2022-11-04T01:27:04;9.10;99.90
11772;DHT22;12556;55.748;13.194;2022-11-04T01:29:30;9.10;99.90
11772;DHT22;12556;55.748;13.194;2022-11-04T01:31:57;9.10;99.90
11772;DHT22;12556;55.748;13.194;2022-11-04T01:34:24;9.10;99.90
11772;DHT22;12556;55.748;13.194;2022-11-04T01:36:51;9.10;99.90
11772;DHT22;12556;55.748;13.194;2022-11-04T01:39:18;9.10;99.90
11772;DHT22;12556;55.748;13.194;2022-11-04T01:41:45;9.10;99.90
11772;DHT22;12556;55.748;13.194;2022-11-04T01:44:48;9.10;99.90
11772;DHT22;12556;55.748;13.194;2022-11-04T01:47:18;9.20;99.90
11772;DHT22;12556;55.748;13.194;2022-11-04T01:49:47;9.20;99.90
11772;DHT22;12556;55.748;13.194;2022-11-04T01:52:17;9.30;99.90
11772;DHT22;12556;55.748;13.194;2022-11-04T01:54:47;9.20;99.90
11772;DHT22;12556;55.748;13.194;2022-11-04T01:57:18;9.20;99.90
11772;DHT22;12556;55.748;13.194;2022-11-04T01:59:48;9.30;99.90
11772;DHT22;12556;55.748;13.194;2022-11-04T02:02:15;9.20;99.90
11772;DHT22;12556;55.748;13.194;2022-11-04T02:04:43;9.30;99.90
11772;DHT22;12556;55.748;13.194;2022-11-04T02:07:11;9.30;99.90
11772;DHT22;12556;55.748;13.194;2022-11-04T02:09:39;9.30;99.90
11772;DHT22;12556;55.748;13.194;2022-11-04T02:12:07;9.30;99.90
11772;DHT22;12556;55.748;13.194;2022-11-04T02:14:53;9.30;99.90
11772;DHT22;12556;55.748;13.194;2022-11-04T02:17:30;9.40;99.90
11772;DHT22;12556;55.748;13.194;2022-11-04T02:20:10;9.40;99.90
11772;DHT22;12556;55.748;13.194;2022-11-04T02:23:03;9.40;99.90
11772;DHT22;12556;55.748;13.194;2022-11-04T02:26:03;9.40;99.90
11772;DHT22;12556;55.748;13.194;2022-11-04T02:29:00;9.40;99.90
11772;DHT22;12556;55.748;13.194;2022-11-04T02:31:30;9.40;99.90
11772;DHT22;12556;55.748;13.194;2022-11-04T02:34:07;9.40;99.90
11772;DHT22;12556;55.748;13.194;2022-11-04T02:36:42;9.50;99.90
11772;DHT22;12556;55.748;13.194;2022-11-04T02:39:21;9.50;99.90
11772;DHT22;12556;55.748;13.194;2022-11-04T02:41:55;9.50;99.90
11772;DHT22;12556;55.748;13.194;2022-11-04T02:44:30;9.50;99.90
11772;DHT22;12556;55.748;13.194;2022-11-04T02:47:00;9.50;99.90
11772;DHT22;12556;55.748;13.194;2022-11-04T02:49:34;9.60;99.90
11772;DHT22;12556;55.748;13.194;2022-11-04T02:52:06;9.60;99.90
11772;DHT22;12556;55.748;13.194;2022-11-04T02:54:37;9.50;99.90
11772;DHT22;12556;55.748;13.194;2022-11-04T02:57:08;9.60;99.90
11772;DHT22;12556;55.748;13.194;2022-11-04T02:59:42;9.60;99.90
11772;DHT22;12556;55.748;13.194;2022-11-04T03:02:14;9.60;99.90
11772;DHT22;12556;55.748;13.194;2022-11-04T03:04:46;9.60;99.90
11772;DHT22;12556;55.748;13.194;2022-11-04T03:07:16;9.60;99.90
11772;DHT22;12556;55.748;13.194;2022-11-04T03:09:53;9.70;99.90
11772;DHT22;12556;55.748;13.194;2022-11-04T03:12:25;9.70;99.90
11772;DHT22;12556;55.748;13.194;2022-11-04T03:15:00;9.70;99.90
11772;DHT22;12556;55.748;13.194;2022-11-04T03:17:31;9.70;99.90
11772;DHT22;12556;55.748;13.194;2022-11-04T03:20:02;9.70;99.90
11772;DHT22;12556;55.748;13.194;2022-11-04T03:22:34;9.70;99.90
11772;DHT22;12556;55.748;13.194;2022-11-04T03:25:02;9.70;99.90
11772;DHT22;12556;55.748;13.194;2022-11-04T03:27:34;9.70;99.90
11772;DHT22;12556;55.748;13.194;2022-11-04T03:30:07;9.80;99.90
11772;DHT22;12556;55.748;13.194;2022-11-04T03:32:40;9.70;99.90
11772;DHT22;12556;55.748;13.194;2022-11-04T03:35:08;9.80;99.90
11772;DHT22;12556;55.748;13.194;2022-11-04T03:37:37;9.70;99.90
11772;DHT22;12556;55.748;13.194;2022-11-04T03:40:05;9.70;99.90
11772;DHT22;12556;55.748;13.194;2022-11-04T03:42:36;9.70;99.90
11772;DHT22;12556;55.748;13.194;2022-11-04T03:45:07;9.70;99.90
11772;DHT22;12556;55.748;13.194;2022-11-04T03:47:34;9.70;99.90
11772;DHT22;12556;55.748;13.194;2022-11-04T03:50:05;9.70;99.90
11772;DHT22;12556;55.748;13.194;2022-11-04T03:52:33;9.70;99.90
11772;DHT22;12556;55.748;13.194;2022-11-04T03:55:00;9.70;99.90
11772;DHT22;12556;55.748;13.194;2022-11-04T03:57:44;9.70;99.90
11772;DHT22;12556;55.748;13.194;2022-11-04T04:00:17;9.70;99.90
11772;DHT22;12556;55.748;13.194;2022-11-04T04:03:04;9.70;99.90
11772;DHT22;12556;55.748;13.194;2022-11-04T04:05:35;9.70;99.90
11772;DHT22;12556;55.748;13.194;2022-11-04T04:08:18;9.70;99.90
11772;DHT22;12556;55.748;13.194;2022-11-04T04:10:58;9.70;99.90
11772;DHT22;12556;55.748;13.194;2022-11-04T04:13:35;9.70;99.90
11772;DHT22;12556;55.748;13.194;2022-11-04T04:16:08;9.80;99.90
11772;DHT22;12556;55.748;13.194;2022-11-04T04:18:39;9.70;99.90
11772;DHT22;12556;55.748;13.194;2022-11-04T04:21:11;9.70;99.90
11772;DHT22;12556;55.748;13.194;2022-11-04T04:23:41;9.70;99.90
11772;DHT22;12556;55.748;13.194;2022-11-04T04:26:26;9.80;99.90
11772;DHT22;12556;55.748;13.194;2022-11-04T04:29:13;9.80;99.90
11772;DHT22;12556;55.748;13.194;2022-11-04T04:31:42;10.20;99.90
11772;DHT22;12556;55.748;13.194;2022-11-04T04:34:23;9.80;99.90
11772;DHT22;12556;55.748;13.194;2022-11-04T04:36:56;9.80;99.90
11772;DHT22;12556;55.748;13.194;2022-11-04T04:39:30;9.80;99.90
11772;DHT22;12556;55.748;13.194;2022-11-04T04:42:15;9.90;99.90
11772;DHT22;12556;55.748;13.194;2022-11-04T04:45:02;9.90;99.90
11772;DHT22;12556;55.748;13.194;2022-11-04T04:47:41;9.90;99.90
11772;DHT22;12556;55.748;13.194;2022-11-04T04:50:10;10.00;99.90
11772;DHT22;12556;55.748;13.194;2022-11-04T04:52:40;9.90;99.90
11772;DHT22;12556;55.748;13.194;2022-11-04T04:55:08;9.90;99.90
11772;DHT22;12556;55.748;13.194;2022-11-04T04:57:36;10.40;99.90
11772;DHT22;12556;55.748;13.194;2022-11-04T05:00:04;10.00;99.90
11772;DHT22;12556;55.748;13.194;2022-11-04T05:02:32;9.90;99.90
11772;DHT22;12556;55.748;13.194;2022-11-04T05:05:00;9.90;99.90
11772;DHT22;12556;55.748;13.194;2022-11-04T05:07:27;9.90;99.90
11772;DHT22;12556;55.748;13.194;2022-11-04T05:09:55;9.90;99.90
11772;DHT22;12556;55.748;13.194;2022-11-04T05:12:22;10.00;99.90
11772;DHT22;12556;55.748;13.194;2022-11-04T05:14:49;10.00;99.90
11772;DHT22;12556;55.748;13.194;2022-11-04T05:17:16;10.00;99.90
11772;DHT22;12556;55.748;13.194;2022-11-04T05:19:43;10.00;99.90
11772;DHT22;12556;55.748;13.194;2022-11-04T05:22:11;10.00;99.90
11772;DHT22;12556;55.748;13.194;2022-11-04T05:24:38;10.00;99.90
11772;DHT22;12556;55.748;13.194;2022-11-04T05:27:05;10.00;99.90
11772;DHT22;12556;55.748;13.194;2022-11-04T05:29:32;10.00;99.90
11772;DHT22;12556;55.748;13.194;2022-11-04T05:31:59;9.90;99.90
11772;DHT22;12556;55.748;13.194;2022-11-04T05:34:26;9.90;99.90
11772;DHT22;12556;55.748;13.194;2022-11-04T05:36:53;10.00;99.90
11772;DHT22;12556;55.748;13.194;2022-11-04T05:39:21;9.90;99.90
11772;DHT22;12556;55.748;13.194;2022-11-04T05:41:48;9.90;99.90
11772;DHT22;12556;55.748;13.194;2022-11-04T05:44:15;9.90;99.90
11772;DHT22;12556;55.748;13.194;2022-11-04T05:46:41;9.90;99.90
11772;DHT22;12556;55.748;13.194;2022-11-04T05:49:08;9.90;99.90
11772;DHT22;12556;55.748;13.194;2022-11-04T05:51:36;9.90;99.90
11772;DHT22;12556;55.748;13.194;2022-11-04T05:54:03;9.90;99.90
11772;DHT22;12556;55.748;13.194;2022-11-04T05:56:31;9.90;99.90
11772;DHT22;12556;55.748;13.194;2022-11-04T05:58:58;9.90;99.90
11772;DHT22;12556;55.748;13.194;2022-11-04T06:01:29;9.90;99.90
11772;DHT22;12556;55.748;13.194;2022-11-04T06:03:57;9.90;99.90
11772;DHT22;12556;55.748;13.194;2022-11-04T06:06:25;9.90;99.90
11772;DHT22;12556;55.748;13.194;2022-11-04T06:08:53;9.90;99.90
11772;DHT22;12556;55.748;13.194;2022-11-04T06:11:21;9.80;99.90
11772;DHT22;12556;55.748;13.194;2022-11-04T06:13:50;9.90;99.90
11772;DHT22;12556;55.748;13.194;2022-11-04T06:16:17;9.90;99.90
11772;DHT22;12556;55.748;13.194;2022-11-04T06:18:44;9.90;99.90
11772;DHT22;12556;55.748;13.194;2022-11-04T06:21:24;9.90;99.90
11772;DHT22;12556;55.748;13.194;2022-11-04T06:23:52;9.90;99.90
11772;DHT22;12556;55.748;13.194;2022-11-04T06:26:21;9.90;99.90
11772;DHT22;12556;55.748;13.194;2022-11-04T06:28:50;9.90;99.90
11772;DHT22;12556;55.748;13.194;2022-11-04T06:31:17;10.00;99.90
11772;DHT22;12556;55.748;13.194;2022-11-04T06:33:45;10.00;99.90
11772;DHT22;12556;55.748;13.194;2022-11-04T06:36:13;10.00;99.90
11772;DHT22;12556;55.748;13.194;2022-11-04T06:38:41;10.10;99.90
11772;DHT22;12556;55.748;13.194;2022-11-04T06:41:12;10.10;99.90
11772;DHT22;12556;55.748;13.194;2022-11-04T06:43:39;10.20;99.90
11772;DHT22;12556;55.748;13.194;2022-11-04T06:46:23;10.20;99.90
11772;DHT22;12556;55.748;13.194;2022-11-04T06:48:50;10.20;99.90
11772;DHT22;12556;55.748;13.194;2022-11-04T06:51:17;10.30;99.90
11772;DHT22;12556;55.748;13.194;2022-11-04T06:53:44;10.30;99.90
11772;DHT22;12556;55.748;13.194;2022-11-04T06:56:11;10.40;99.90
11772;DHT22;12556;55.748;13.194;2022-11-04T06:58:38;10.40;99.90
11772;DHT22;12556;55.748;13.194;2022-11-04T07:01:07;10.50;99.90
11772;DHT22;12556;55.748;13.194;2022-11-04T07:03:34;10.50;99.90
11772;DHT22;12556;55.748;13.194;2022-11-04T07:06:05;10.50;99.90
11772;DHT22;12556;55.748;13.194;2022-11-04T07:08:32;10.60;99.90
11772;DHT22;12556;55.748;13.194;2022-11-04T07:10:59;10.60;99.90
11772;DHT22;12556;55.748;13.194;2022-11-04T07:13:26;10.70;99.90
11772;DHT22;12556;55.748;13.194;2022-11-04T07:15:53;10.70;99.90
11772;DHT22;12556;55.748;13.194;2022-11-04T07:18:21;10.80;99.90
11772;DHT22;12556;55.748;13.194;2022-11-04T07:20:48;10.80;99.90
11772;DHT22;12556;55.748;13.194;2022-11-04T07:23:16;10.80;99.90
11772;DHT22;12556;55.748;13.194;2022-11-04T07:25:43;10.90;99.90
11772;DHT22;12556;55.748;13.194;2022-11-04T07:28:10;10.90;99.90
11772;DHT22;12556;55.748;13.194;2022-11-04T07:30:37;10.90;99.90
11772;DHT22;12556;55.748;13.194;2022-11-04T07:33:04;10.90;99.90
11772;DHT22;12556;55.748;13.194;2022-11-04T07:35:32;10.90;99.90
11772;DHT22;12556;55.748;13.194;2022-11-04T07:37:59;11.00;99.90
11772;DHT22;12556;55.748;13.194;2022-11-04T07:40:28;11.00;99.90
11772;DHT22;12556;55.748;13.194;2022-11-04T07:42:55;11.00;99.90
11772;DHT22;12556;55.748;13.194;2022-11-04T07:45:22;11.10;99.90
11772;DHT22;12556;55.748;13.194;2022-11-04T07:47:49;11.10;99.90
11772;DHT22;12556;55.748;13.194;2022-11-04T07:50:16;11.10;99.90
11772;DHT22;12556;55.748;13.194;2022-11-04T07:52:44;11.10;99.90
11772;DHT22;12556;55.748;13.194;2022-11-04T07:55:11;11.10;99.90
11772;DHT22;12556;55.748;13.194;2022-11-04T07:57:43;11.10;99.90
11772;DHT22;12556;55.748;13.194;2022-11-04T08:00:11;11.10;99.90
11772;DHT22;12556;55.748;13.194;2022-11-04T08:02:39;11.10;99.90
11772;DHT22;12556;55.748;13.194;2022-11-04T08:05:07;11.10;99.90
11772;DHT22;12556;55.748;13.194;2022-11-04T08:07:34;11.10;99.90
11772;DHT22;12556;55.748;13.194;2022-11-04T08:10:02;11.10;99.90
11772;DHT22;12556;55.748;13.194;2022-11-04T08:12:30;11.20;99.90
11772;DHT22;12556;55.748;13.194;2022-11-04T08:14:57;11.10;99.90
11772;DHT22;12556;55.748;13.194;2022-11-04T08:17:24;11.10;99.90
11772;DHT22;12556;55.748;13.194;2022-11-04T08:19:51;11.20;99.90
11772;DHT22;12556;55.748;13.194;2022-11-04T08:22:18;11.20;99.90
11772;DHT22;12556;55.748;13.194;2022-11-04T08:24:45;11.10;99.90
11772;DHT22;12556;55.748;13.194;2022-11-04T08:27:14;11.10;99.90
11772;DHT22;12556;55.748;13.194;2022-11-04T08:29:41;11.10;99.90
11772;DHT22;12556;55.748;13.194;2022-11-04T08:32:08;11.10;99.90
11772;DHT22;12556;55.748;13.194;2022-11-04T08:34:35;11.20;99.90
11772;DHT22;12556;55.748;13.194;2022-11-04T08:37:02;11.10;99.90
11772;DHT22;12556;55.748;13.194;2022-11-04T08:39:29;11.10;99.90
11772;DHT22;12556;55.748;13.194;2022-11-04T08:41:56;11.10;99.90
11772;DHT22;12556;55.748;13.194;2022-11-04T08:44:24;11.10;99.90
11772;DHT22;12556;55.748;13.194;2022-11-04T08:46:51;11.10;99.90
11772;DHT22;12556;55.748;13.194;2022-11-04T08:49:18;11.10;99.90
11772;DHT22;12556;55.748;13.194;2022-11-04T08:51:45;11.20;99.90
11772;DHT22;12556;55.748;13.194;2022-11-04T08:54:14;11.20;99.90
11772;DHT22;12556;55.748;13.194;2022-11-04T08:56:41;11.20;99.90
11772;DHT22;12556;55.748;13.194;2022-11-04T08:59:09;11.20;99.90
11772;DHT22;12556;55.748;13.194;2022-11-04T09:01:37;11.20;99.90
11772;DHT22;12556;55.748;13.194;2022-11-04T09:04:05;11.20;99.90
11772;DHT22;12556;55.748;13.194;2022-11-04T09:06:34;11.10;99.90
11772;DHT22;12556;55.748;13.194;2022-11-04T09:09:02;11.10;99.90
11772;DHT22;12556;55.748;13.194;2022-11-04T09:11:31;11.20;99.90
11772;DHT22;12556;55.748;13.194;2022-11-04T09:13:59;11.20;99.90
11772;DHT22;12556;55.748;13.194;2022-11-04T09:16:27;11.20;99.90
11772;DHT22;12556;55.748;13.194;2022-11-04T09:18:56;11.20;99.90
11772;DHT22;12556;55.748;13.194;2022-11-04T09:21:24;11.20;99.90
11772;DHT22;12556;55.748;13.194;2022-11-04T09:23:51;11.20;99.90
11772;DHT22;12556;55.748;13.194;2022-11-04T09:26:20;11.20;99.90
11772;DHT22;12556;55.748;13.194;2022-11-04T09:28:51;11.20;99.90
11772;DHT22;12556;55.748;13.194;2022-11-04T09:31:19;11.20;99.90
11772;DHT22;12556;55.748;13.194;2022-11-04T09:33:46;11.20;99.90
11772;DHT22;12556;55.748;13.194;2022-11-04T09:36:14;11.20;99.90
11772;DHT22;12556;55.748;13.194;2022-11-04T09:38:41;11.20;99.90
11772;DHT22;12556;55.748;13.194;2022-11-04T09:41:25;11.20;99.90
11772;DHT22;12556;55.748;13.194;2022-11-04T09:43:59;11.20;99.90
11772;DHT22;12556;55.748;13.194;2022-11-04T09:46:30;11.20;99.90
11772;DHT22;12556;55.748;13.194;2022-11-04T09:49:01;11.20;99.90
11772;DHT22;12556;55.748;13.194;2022-11-04T09:51:30;11.20;99.90
11772;DHT22;12556;55.748;13.194;2022-11-04T09:53:59;11.20;99.90
11772;DHT22;12556;55.748;13.194;2022-11-04T09:56:32;11.30;99.90
11772;DHT22;12556;55.748;13.194;2022-11-04T09:59:01;11.30;99.90
11772;DHT22;12556;55.748;13.194;2022-11-04T10:01:33;11.30;99.90
11772;DHT22;12556;55.748;13.194;2022-11-04T10:04:19;11.30;99.90
11772;DHT22;12556;55.748;13.194;2022-11-04T10:07:04;11.30;99.90
11772;DHT22;12556;55.748;13.194;2022-11-04T10:09:43;11.30;99.90
11772;DHT22;12556;55.748;13.194;2022-11-04T10:12:21;11.30;99.90
11772;DHT22;12556;55.748;13.194;2022-11-04T10:15:08;11.20;99.90
11772;DHT22;12556;55.748;13.194;2022-11-04T10:17:53;11.30;99.90
11772;DHT22;12556;55.748;13.194;2022-11-04T10:20:34;11.30;99.90
11772;DHT22;12556;55.748;13.194;2022-11-04T10:23:10;11.30;99.90
11772;DHT22;12556;55.748;13.194;2022-11-04T10:25:47;11.40;99.90
11772;DHT22;12556;55.748;13.194;2022-11-04T10:28:18;11.40;99.90
11772;DHT22;12556;55.748;13.194;2022-11-04T10:30:47;11.40;99.90
11772;DHT22;12556;55.748;13.194;2022-11-04T10:33:25;11.50;99.90
11772;DHT22;12556;55.748;13.194;2022-11-04T10:35:56;11.50;99.90
11772;DHT22;12556;55.748;13.194;2022-11-04T10:38:31;11.60;99.90
11772;DHT22;12556;55.748;13.194;2022-11-04T10:40:59;11.60;99.90
11772;DHT22;12556;55.748;13.194;2022-11-04T10:43:30;11.60;99.90
11772;DHT22;12556;55.748;13.194;2022-11-04T10:46:14;11.60;99.90
11772;DHT22;12556;55.748;13.194;2022-11-04T10:48:49;11.60;99.90
11772;DHT22;12556;55.748;13.194;2022-11-04T10:51:17;11.70;99.90
11772;DHT22;12556;55.748;13.194;2022-11-04T10:53:51;11.70;99.90
11772;DHT22;12556;55.748;13.194;2022-11-04T10:56:27;11.70;99.90
11772;DHT22;12556;55.748;13.194;2022-11-04T10:59:00;11.70;99.90
11772;DHT22;12556;55.748;13.194;2022-11-04T11:01:32;11.80;99.90
11772;DHT22;12556;55.748;13.194;2022-11-04T11:04:00;11.70;99.90
11772;DHT22;12556;55.748;13.194;2022-11-04T11:06:32;11.70;99.90
11772;DHT22;12556;55.748;13.194;2022-11-04T11:09:16;12.20;99.90
11772;DHT22;12556;55.748;13.194;2022-11-04T11:11:47;11.70;99.90
11772;DHT22;12556;55.748;13.194;2022-11-04T11:14:16;11.70;99.90
11772;DHT22;12556;55.748;13.194;2022-11-04T11:16:43;11.80;99.90
11772;DHT22;12556;55.748;13.194;2022-11-04T11:19:16;11.70;99.90
11772;DHT22;12556;55.748;13.194;2022-11-04T11:21:45;11.70;99.90
11772;DHT22;12556;55.748;13.194;2022-11-04T11:24:18;11.70;99.90
11772;DHT22;12556;55.748;13.194;2022-11-04T11:26:48;11.70;99.90
11772;DHT22;12556;55.748;13.194;2022-11-04T11:29:20;11.70;99.90
11772;DHT22;12556;55.748;13.194;2022-11-04T11:31:49;11.60;99.90
11772;DHT22;12556;55.748;13.194;2022-11-04T11:34:20;11.70;99.90
11772;DHT22;12556;55.748;13.194;2022-11-04T11:36:52;11.70;99.90
11772;DHT22;12556;55.748;13.194;2022-11-04T11:39:22;11.70;99.90
11772;DHT22;12556;55.748;13.194;2022-11-04T11:41:53;11.70;99.90
11772;DHT22;12556;55.748;13.194;2022-11-04T11:44:29;11.60;99.90
11772;DHT22;12556;55.748;13.194;2022-11-04T11:47:00;11.60;99.90
11772;DHT22;12556;55.748;13.194;2022-11-04T11:49:29;11.60;99.90
11772;DHT22;12556;55.748;13.194;2022-11-04T11:52:16;11.70;99.90
11772;DHT22;12556;55.748;13.194;2022-11-04T11:54:53;11.70;99.90
11772;DHT22;12556;55.748;13.194;2022-11-04T11:57:33;11.70;99.90
11772;DHT22;12556;55.748;13.194;2022-11-04T12:00:03;11.70;99.90
11772;DHT22;12556;55.748;13.194;2022-11-04T12:02:39;11.70;99.90
11772;DHT22;12556;55.748;13.194;2022-11-04T12:05:08;11.70;99.90
11772;DHT22;12556;55.748;13.194;2022-11-04T12:07:40;11.80;99.90
11772;DHT22;12556;55.748;13.194;2022-11-04T12:10:25;11.70;99.90
11772;DHT22;12556;55.748;13.194;2022-11-04T12:13:01;11.70;99.90
11772;DHT22;12556;55.748;13.194;2022-11-04T12:15:38;11.70;99.90
11772;DHT22;12556;55.748;13.194;2022-11-04T12:18:25;11.80;99.90
11772;DHT22;12556;55.748;13.194;2022-11-04T12:20:57;11.80;99.90
11772;DHT22;12556;55.748;13.194;2022-11-04T12:23:33;11.80;99.90
11772;DHT22;12556;55.748;13.194;2022-11-04T12:26:15;11.80;99.90
11772;DHT22;12556;55.748;13.194;2022-11-04T12:28:52;11.80;99.90
11772;DHT22;12556;55.748;13.194;2022-11-04T12:31:33;11.80;99.90
11772;DHT22;12556;55.748;13.194;2022-11-04T12:34:11;11.80;99.90
11772;DHT22;12556;55.748;13.194;2022-11-04T12:36:57;11.80;99.90
11772;DHT22;12556;55.748;13.194;2022-11-04T12:39:37;11.90;99.90
11772;DHT22;12556;55.748;13.194;2022-11-04T12:42:16;11.90;99.90
11772;DHT22;12556;55.748;13.194;2022-11-04T12:44:52;11.90;99.90
11772;DHT22;12556;55.748;13.194;2022-11-04T12:47:30;11.80;99.90
11772;DHT22;12556;55.748;13.194;2022-11-04T12:53:08;11.90;99.90
11772;DHT22;12556;55.748;13.194;2022-11-04T12:55:43;11.80;99.90
11772;DHT22;12556;55.748;13.194;2022-11-04T12:58:25;11.80;99.90
11772;DHT22;12556;55.748;13.194;2022-11-04T13:00:57;11.80;99.90
11772;DHT22;12556;55.748;13.194;2022-11-04T13:03:30;11.80;99.90
11772;DHT22;12556;55.748;13.194;2022-11-04T13:06:02;11.80;99.90
11772;DHT22;12556;55.748;13.194;2022-11-04T13:08:37;11.80;99.90
11772;DHT22;12556;55.748;13.194;2022-11-04T13:11:09;11.70;99.90
11772;DHT22;12556;55.748;13.194;2022-11-04T13:13:55;11.70;99.90
11772;DHT22;12556;55.748;13.194;2022-11-04T13:16:23;11.80;99.90
11772;DHT22;12556;55.748;13.194;2022-11-04T13:18:50;11.70;99.90
11772;DHT22;12556;55.748;13.194;2022-11-04T13:21:21;11.70;99.90
11772;DHT22;12556;55.748;13.194;2022-11-04T13:23:53;11.70;99.90
11772;DHT22;12556;55.748;13.194;2022-11-04T13:26:22;11.60;99.90
11772;DHT22;12556;55.748;13.194;2022-11-04T13:28:56;11.60;99.90
11772;DHT22;12556;55.748;13.194;2022-11-04T13:31:36;11.60;99.90
11772;DHT22;12556;55.748;13.194;2022-11-04T13:34:13;11.60;99.90
11772;DHT22;12556;55.748;13.194;2022-11-04T13:36:45;11.60;99.90
11772;DHT22;12556;55.748;13.194;2022-11-04T13:39:17;11.60;99.90
11772;DHT22;12556;55.748;13.194;2022-11-04T13:45:09;11.60;99.90
11772;DHT22;12556;55.748;13.194;2022-11-04T13:47:44;11.50;99.90
11772;DHT22;12556;55.748;13.194;2022-11-04T13:50:30;11.60;99.90
11772;DHT22;12556;55.748;13.194;2022-11-04T13:52:58;11.50;99.90
11772;DHT22;12556;55.748;13.194;2022-11-04T13:55:25;11.50;99.90
11772;DHT22;12556;55.748;13.194;2022-11-04T13:57:54;11.50;99.90
11772;DHT22;12556;55.748;13.194;2022-11-04T14:00:26;11.50;99.90
11772;DHT22;12556;55.748;13.194;2022-11-04T14:02:53;11.50;99.90
11772;DHT22;12556;55.748;13.194;2022-11-04T14:06:00;11.50;99.90
11772;DHT22;12556;55.748;13.194;2022-11-04T14:08:28;11.50;99.90
11772;DHT22;12556;55.748;13.194;2022-11-04T14:11:13;11.50;99.90
11772;DHT22;12556;55.748;13.194;2022-11-04T14:13:42;11.50;99.90
11772;DHT22;12556;55.748;13.194;2022-11-04T14:16:11;11.50;99.90
11772;DHT22;12556;55.748;13.194;2022-11-04T14:22:36;11.50;99.90
11772;DHT22;12556;55.748;13.194;2022-11-04T14:25:20;11.50;99.90
11772;DHT22;12556;55.748;13.194;2022-11-04T14:27:49;11.50;99.90
11772;DHT22;12556;55.748;13.194;2022-11-04T14:30:34;11.50;99.90
11772;DHT22;12556;55.748;13.194;2022-11-04T14:33:04;11.50;99.90
11772;DHT22;12556;55.748;13.194;2022-11-04T14:35:33;11.50;99.90
11772;DHT22;12556;55.748;13.194;2022-11-04T14:38:23;11.50;99.90
11772;DHT22;12556;55.748;13.194;2022-11-04T14:41:10;11.50;99.90
11772;DHT22;12556;55.748;13.194;2022-11-04T14:43:39;11.50;99.90
11772;DHT22;12556;55.748;13.194;2022-11-04T14:46:07;11.40;99.90
11772;DHT22;12556;55.748;13.194;2022-11-04T14:48:35;11.40;99.90
11772;DHT22;12556;55.748;13.194;2022-11-04T14:51:19;11.50;99.90
11772;DHT22;12556;55.748;13.194;2022-11-04T14:53:47;11.50;99.90
11772;DHT22;12556;55.748;13.194;2022-11-04T14:56:16;11.40;99.90
11772;DHT22;12556;55.748;13.194;2022-11-04T14:58:55;11.40;99.90
11772;DHT22;12556;55.748;13.194;2022-11-04T15:01:24;11.40;99.90
11772;DHT22;12556;55.748;13.194;2022-11-04T15:03:52;11.40;99.90
11772;DHT22;12556;55.748;13.194;2022-11-04T15:06:28;11.40;99.90
11772;DHT22;12556;55.748;13.194;2022-11-04T15:08:55;11.50;99.90
11772;DHT22;12556;55.748;13.194;2022-11-04T15:11:24;11.40;99.90
11772;DHT22;12556;55.748;13.194;2022-11-04T15:14:13;11.40;99.90
11772;DHT22;12556;55.748;13.194;2022-11-04T15:16:41;11.40;99.90
11772;DHT22;12556;55.748;13.194;2022-11-04T15:19:10;11.40;99.90
11772;DHT22;12556;55.748;13.194;2022-11-04T15:21:39;11.40;99.90
11772;DHT22;12556;55.748;13.194;2022-11-04T15:24:13;11.40;99.90
11772;DHT22;12556;55.748;13.194;2022-11-04T15:26:43;11.30;99.90
11772;DHT22;12556;55.748;13.194;2022-11-04T15:29:16;11.40;99.90
11772;DHT22;12556;55.748;13.194;2022-11-04T15:31:51;11.30;99.90
11772;DHT22;12556;55.748;13.194;2022-11-04T15:34:19;11.30;99.90
11772;DHT22;12556;55.748;13.194;2022-11-04T15:36:48;11.30;99.90
11772;DHT22;12556;55.748;13.194;2022-11-04T15:39:18;11.30;99.90
11772;DHT22;12556;55.748;13.194;2022-11-04T15:41:47;11.20;99.90
11772;DHT22;12556;55.748;13.194;2022-11-04T15:44:35;11.20;99.90
11772;DHT22;12556;55.748;13.194;2022-11-04T15:47:20;11.20;99.90
11772;DHT22;12556;55.748;13.194;2022-11-04T15:49:49;11.20;99.90
11772;DHT22;12556;55.748;13.194;2022-11-04T15:52:20;11.10;99.90
11772;DHT22;12556;55.748;13.194;2022-11-04T15:54:49;11.10;99.90
11772;DHT22;12556;55.748;13.194;2022-11-04T15:57:18;11.10;99.90
11772;DHT22;12556;55.748;13.194;2022-11-04T15:59:49;11.10;99.90
11772;DHT22;12556;55.748;13.194;2022-11-04T16:02:23;11.10;99.90